createdAt,value
2018-09-11T00:01:50.681Z,68.96
2018-09-11T00:04:18.901Z,68.86
2018-09-11T00:06:46.944Z,68.70
2018-09-11T00:09:14.992Z,67.59
2018-09-11T00:11:44.016Z,68.55
2018-09-11T00:14:12.075Z,68.42
2018-09-11T00:16:40.108Z,68.82
2018-09-11T00:19:08.135Z,68.59
2018-09-11T00:21:36.156Z,68.52
2018-09-11T00:24:04.955Z,68.38
2018-09-11T00:26:33.180Z,68.33
2018-09-11T00:29:01.250Z,67.66
2018-09-11T00:31:29.618Z,67.74
2018-09-11T00:33:57.856Z,68.38
2018-09-11T00:36:25.866Z,68.53
2018-09-11T00:38:54.140Z,67.88
2018-09-11T00:41:22.172Z,67.78
2018-09-11T00:43:50.290Z,67.76
2018-09-11T00:46:18.311Z,68.16
2018-09-11T00:48:46.322Z,67.82
2018-09-11T00:51:14.352Z,68.04
2018-09-11T00:53:42.381Z,68.37
2018-09-11T00:56:10.633Z,68.43
2018-09-11T00:58:38.955Z,67.87
2018-09-11T01:01:07.259Z,68.60
2018-09-11T01:03:35.312Z,68.32
2018-09-11T01:06:03.532Z,68.29
2018-09-11T01:08:31.622Z,68.54
2018-09-11T01:10:59.686Z,68.66
2018-09-11T01:13:27.925Z,68.40
2018-09-11T01:15:56.149Z,69.08
2018-09-11T01:18:24.376Z,68.75
2018-09-11T01:20:52.570Z,68.78
2018-09-11T01:23:20.595Z,69.16
2018-09-11T01:25:48.619Z,69.34
2018-09-11T01:28:16.655Z,69.17
2018-09-11T01:30:44.688Z,68.96
2018-09-11T01:33:12.711Z,69.35
2018-09-11T01:35:41.301Z,69.57
2018-09-11T01:38:09.334Z,69.72
2018-09-11T01:40:37.348Z,69.08
2018-09-11T01:43:05.602Z,69.46
2018-09-11T01:45:33.633Z,69.04
2018-09-11T01:48:01.661Z,69.72
2018-09-11T01:50:29.744Z,69.53
2018-09-11T01:52:57.831Z,68.96
2018-09-11T01:55:25.875Z,70.43
2018-09-11T01:57:53.908Z,70.06
2018-09-11T02:00:21.948Z,69.54
2018-09-11T02:02:50.268Z,70.17
2018-09-11T02:05:18.446Z,69.54
2018-09-11T02:07:46.552Z,70.10
2018-09-11T02:10:14.668Z,70.36
2018-09-11T02:12:42.992Z,70.49
2018-09-11T02:15:11.740Z,70.62
2018-09-11T02:17:40.344Z,70.65
2018-09-11T02:20:08.366Z,70.09
2018-09-11T02:22:36.512Z,70.69
2018-09-11T02:25:04.936Z,69.92
2018-09-11T02:27:33.147Z,70.80
2018-09-11T02:30:01.300Z,70.76
2018-09-11T02:32:29.320Z,70.32
2018-09-11T02:34:57.384Z,71.03
2018-09-11T02:37:25.427Z,70.53
2018-09-11T02:39:53.451Z,70.98
2018-09-11T02:42:21.568Z,70.74
2018-09-11T02:44:49.756Z,71.12
2018-09-11T02:47:17.784Z,70.22
2018-09-11T02:49:45.901Z,71.26
2018-09-11T02:52:14.265Z,71.02
2018-09-11T02:54:42.546Z,71.14
2018-09-11T02:57:10.731Z,70.83
2018-09-11T02:59:38.905Z,71.63
2018-09-11T03:02:06.943Z,71.62
2018-09-11T03:04:35.013Z,71.70
2018-09-11T03:07:03.045Z,71.38
2018-09-11T03:09:31.069Z,71.32
2018-09-11T03:11:59.095Z,71.41
2018-09-11T03:14:27.224Z,70.90
2018-09-11T03:16:55.284Z,70.86
2018-09-11T03:19:23.308Z,70.65
2018-09-11T03:21:51.736Z,71.37
2018-09-11T03:24:19.756Z,70.82
2018-09-11T03:26:47.775Z,71.02
2018-09-11T03:29:15.858Z,70.96
2018-09-11T03:31:43.930Z,70.94
2018-09-11T03:34:12.119Z,70.47
2018-09-11T03:36:40.172Z,71.01
2018-09-11T03:39:09.232Z,70.48
2018-09-11T03:41:37.519Z,70.83
2018-09-11T03:44:05.595Z,70.82
2018-09-11T03:46:33.686Z,70.44
2018-09-11T03:49:01.704Z,70.25
2018-09-11T03:51:29.724Z,69.94
2018-09-11T03:53:57.786Z,70.22
2018-09-11T03:56:25.803Z,70.44
2018-09-11T03:58:53.807Z,70.89
2018-09-11T04:01:21.979Z,70.52
2018-09-11T04:03:50.201Z,70.68
2018-09-11T04:06:18.481Z,70.43
2018-09-11T04:08:46.513Z,70.70
2018-09-11T04:11:14.540Z,70.94
2018-09-11T04:13:42.556Z,71.22
2018-09-11T04:16:10.948Z,71.00
2018-09-11T04:18:38.964Z,71.28
2018-09-11T04:21:07.304Z,71.15
2018-09-11T04:23:35.771Z,70.34
2018-09-11T04:26:04.705Z,70.87
2018-09-11T04:28:32.901Z,71.38
2018-09-11T04:31:00.988Z,71.65
2018-09-11T04:33:29.008Z,71.45
2018-09-11T04:35:57.420Z,71.44
2018-09-11T04:38:25.620Z,71.37
2018-09-11T04:40:53.642Z,71.00
2018-09-11T04:43:21.806Z,71.73
2018-09-11T04:45:49.872Z,71.07
2018-09-11T04:48:18.206Z,71.36
2018-09-11T04:50:46.254Z,71.77
2018-09-11T04:53:14.283Z,72.38
2018-09-11T04:55:42.308Z,71.97
2018-09-11T04:58:10.346Z,71.60
2018-09-11T05:00:38.533Z,72.21
2018-09-11T05:03:06.649Z,71.72
2018-09-11T05:05:34.678Z,72.12
2018-09-11T05:08:02.824Z,72.69
2018-09-11T05:10:40.645Z,72.01
2018-09-11T05:13:23.892Z,72.47
2018-09-11T05:18:39.787Z,72.55
2018-09-11T05:21:07.864Z,72.85
2018-09-11T05:23:55.116Z,72.09
2018-09-11T05:26:23.147Z,72.63
2018-09-11T05:28:51.576Z,73.36
2018-09-11T05:31:19.608Z,72.50
2018-09-11T05:33:47.864Z,73.30
2018-09-11T05:36:38.288Z,73.53
2018-09-11T05:39:08.579Z,72.42
2018-09-11T05:41:36.653Z,73.37
2018-09-11T05:44:05.561Z,72.14
2018-09-11T05:46:33.630Z,72.36
2018-09-11T05:49:02.010Z,73.01
2018-09-11T05:51:30.036Z,73.14
2018-09-11T05:53:58.067Z,72.46
2018-09-11T05:56:26.106Z,72.44
2018-09-11T05:58:54.146Z,72.65
2018-09-11T06:01:22.147Z,73.02
2018-09-11T06:03:50.203Z,72.43
2018-09-11T06:06:18.235Z,72.73
2018-09-11T06:08:46.498Z,73.35
2018-09-11T06:11:14.625Z,72.27
2018-09-11T06:13:42.644Z,72.75
2018-09-11T06:16:10.941Z,72.77
2018-09-11T06:18:38.912Z,73.42
2018-09-11T06:21:06.949Z,72.82
2018-09-11T06:23:35.233Z,72.54
2018-09-11T06:26:03.506Z,72.37
2018-09-11T06:28:31.717Z,72.87
2018-09-11T06:30:59.768Z,72.32
2018-09-11T06:33:27.995Z,72.35
2018-09-11T06:35:56.025Z,71.98
2018-09-11T06:38:24.061Z,72.38
2018-09-11T06:40:52.349Z,72.04
2018-09-11T06:43:20.383Z,72.32
2018-09-11T06:45:48.402Z,71.62
2018-09-11T06:48:16.474Z,71.68
2018-09-11T06:50:44.545Z,71.08
2018-09-11T06:53:12.518Z,71.47
2018-09-11T06:55:40.537Z,71.20
2018-09-11T06:58:08.727Z,71.32
2018-09-11T07:00:36.856Z,70.85
2018-09-11T07:03:05.297Z,71.13
2018-09-11T07:05:33.325Z,70.99
2018-09-11T07:08:01.729Z,71.34
2018-09-11T07:10:29.796Z,71.33
2018-09-11T07:12:57.911Z,70.98
2018-09-11T07:15:25.945Z,71.05
2018-09-11T07:17:54.180Z,71.35
2018-09-11T07:20:22.544Z,71.34
2018-09-11T07:22:50.471Z,71.22
2018-09-11T07:25:18.529Z,71.16
2018-09-11T07:27:46.602Z,70.56
2018-09-11T07:30:15.041Z,70.91
2018-09-11T07:32:43.019Z,70.42
2018-09-11T07:35:11.133Z,70.16
2018-09-11T07:37:39.272Z,70.17
2018-09-11T07:40:07.650Z,70.53
2018-09-11T07:42:35.704Z,69.70
2018-09-11T07:45:03.960Z,69.86
2018-09-11T07:47:32.101Z,69.87
2018-09-11T07:50:00.160Z,70.07
2018-09-11T07:52:28.207Z,69.45
2018-09-11T07:54:56.347Z,69.69
2018-09-11T07:57:24.736Z,69.29
2018-09-11T07:59:52.741Z,69.38
2018-09-11T08:02:20.759Z,69.05
2018-09-11T08:04:49.925Z,69.54
2018-09-11T08:07:18.002Z,69.13
2018-09-11T08:09:46.133Z,68.41
2018-09-11T08:12:14.152Z,68.51
2018-09-11T08:14:42.424Z,67.55
2018-09-11T08:17:10.507Z,67.21
2018-09-11T08:19:38.745Z,67.64
2018-09-11T08:22:06.905Z,67.15
2018-09-11T08:24:34.928Z,67.70
2018-09-11T08:27:03.368Z,66.80
2018-09-11T08:29:31.535Z,67.11
2018-09-11T08:31:59.473Z,67.52
2018-09-11T08:34:27.492Z,66.18
2018-09-11T08:36:55.516Z,66.10
2018-09-11T08:39:23.528Z,66.64
2018-09-11T08:41:51.557Z,66.47
2018-09-11T08:44:19.573Z,65.99
2018-09-11T08:46:47.670Z,65.84
2018-09-11T08:49:15.614Z,66.72
2018-09-11T08:51:43.640Z,66.70
2018-09-11T08:54:11.847Z,65.03
2018-09-11T08:56:39.940Z,65.85
2018-09-11T09:18:59.696Z,64.80
2018-09-11T09:21:27.725Z,64.21
2018-09-11T09:23:55.817Z,64.25
2018-09-11T09:26:23.887Z,64.51
2018-09-11T09:28:51.922Z,63.88
2018-09-11T09:31:20.187Z,63.78
2018-09-11T09:33:48.261Z,62.86
2018-09-11T09:36:16.287Z,63.38
2018-09-11T09:38:44.376Z,63.79
2018-09-11T09:41:12.591Z,62.99
2018-09-11T09:43:40.616Z,63.88
2018-09-11T09:46:08.696Z,63.46
2018-09-11T09:48:36.795Z,63.78
2018-09-11T09:51:05.176Z,62.15
2018-09-11T09:53:33.264Z,61.36
2018-09-11T09:56:01.311Z,60.83
2018-09-11T09:58:29.624Z,60.90
2018-09-11T10:01:01.844Z,60.47
2018-09-11T10:03:30.304Z,59.92
2018-09-11T10:05:58.327Z,60.55
2018-09-11T10:08:26.583Z,59.58
2018-09-11T10:10:54.592Z,59.61
2018-09-11T10:13:22.645Z,58.51
2018-09-11T10:15:50.812Z,59.15
2018-09-11T10:18:18.900Z,59.29
2018-09-11T10:20:46.955Z,58.20
2018-09-11T10:23:15.320Z,57.85
2018-09-11T10:25:43.382Z,57.73
2018-09-11T10:28:11.448Z,57.77
2018-09-11T10:30:39.824Z,56.45
2018-09-11T10:33:07.853Z,56.77
2018-09-11T10:35:35.967Z,57.59
2018-09-11T10:38:04.913Z,56.35
2018-09-11T10:40:32.937Z,56.07
2018-09-11T10:43:01.080Z,56.29
2018-09-11T10:45:29.196Z,56.14
2018-09-11T10:47:57.260Z,55.59
2018-09-11T10:50:25.325Z,55.00
2018-09-11T10:52:53.365Z,55.95
2018-09-11T10:55:21.383Z,54.63
2018-09-11T10:57:49.608Z,55.40
2018-09-11T11:00:17.820Z,54.35
2018-09-11T11:02:46.212Z,53.61
2018-09-11T11:05:14.216Z,53.10
2018-09-11T11:07:42.224Z,52.75
2018-09-11T11:10:10.492Z,51.58
2018-09-11T11:12:38.520Z,51.91
2018-09-11T11:15:06.573Z,51.82
2018-09-11T11:17:34.592Z,51.43
2018-09-11T11:20:02.660Z,51.52
2018-09-11T11:22:30.732Z,52.08
2018-09-11T11:24:58.806Z,50.78
2018-09-11T11:27:26.828Z,50.20
2018-09-11T11:29:55.006Z,50.20
2018-09-11T11:32:23.041Z,51.25
2018-09-11T11:34:51.219Z,50.79
2018-09-11T11:37:19.488Z,49.91
2018-09-11T11:39:47.668Z,50.34
2018-09-11T11:42:15.858Z,50.32
2018-09-11T11:44:43.840Z,50.15
2018-09-11T11:47:12.065Z,49.89
2018-09-11T11:49:40.113Z,51.22
2018-09-11T11:52:08.136Z,50.15
2018-09-11T11:54:36.195Z,49.48
2018-09-11T11:57:04.724Z,49.16
2018-09-11T11:59:32.836Z,49.03
2018-09-11T12:02:00.992Z,48.20
2018-09-11T12:04:28.973Z,48.44
2018-09-11T12:06:57.167Z,48.14
2018-09-11T12:09:26.348Z,48.10
2018-09-11T12:11:54.391Z,47.58
2018-09-11T12:14:22.508Z,46.97
2018-09-11T12:16:50.595Z,48.14
2018-09-11T12:19:18.605Z,46.88
2018-09-11T12:21:46.725Z,47.13
2018-09-11T12:24:14.780Z,45.90
2018-09-11T12:26:42.849Z,46.49
2018-09-11T12:29:10.868Z,45.91
2018-09-11T12:31:39.181Z,46.01
2018-09-11T12:34:07.383Z,45.63
2018-09-11T12:36:35.413Z,46.34
2018-09-11T12:39:03.486Z,46.88
2018-09-11T12:41:31.496Z,47.61
2018-09-11T12:43:59.529Z,48.01
2018-09-11T12:46:28.082Z,47.38
2018-09-11T12:48:55.809Z,48.08
2018-09-11T12:51:23.821Z,48.40
2018-09-11T12:53:51.847Z,47.71
2018-09-11T12:56:19.889Z,48.85
2018-09-11T12:58:47.916Z,48.85
2018-09-11T13:01:16.156Z,49.10
2018-09-11T13:03:44.179Z,48.38
2018-09-11T13:06:12.202Z,48.64
2018-09-11T13:08:40.380Z,48.86
2018-09-11T13:11:08.452Z,48.58
2018-09-11T13:13:36.517Z,48.93
2018-09-11T13:16:05.537Z,49.52
2018-09-11T13:18:33.705Z,49.53
2018-09-11T13:21:01.729Z,50.65
2018-09-11T13:23:29.761Z,49.76
2018-09-11T13:25:57.863Z,49.72
2018-09-11T13:28:25.901Z,49.37
2018-09-11T13:30:54.045Z,48.70
2018-09-11T13:33:22.074Z,48.86
2018-09-11T13:35:50.100Z,49.77
2018-09-11T13:38:18.179Z,50.34
2018-09-11T13:40:46.242Z,50.98
2018-09-11T13:43:14.271Z,51.04
2018-09-11T13:45:42.376Z,50.74
2018-09-11T13:48:10.420Z,50.28
2018-09-11T13:50:38.470Z,49.92
2018-09-11T13:53:06.591Z,50.06
2018-09-11T13:55:34.676Z,49.74
2018-09-11T13:58:02.696Z,49.92
2018-09-11T14:00:30.788Z,49.55
2018-09-11T14:02:58.871Z,50.19
2018-09-11T14:08:33.248Z,48.18
2018-09-11T14:11:01.291Z,48.93
2018-09-11T14:13:29.315Z,49.59
2018-09-11T14:15:57.481Z,49.60
2018-09-11T14:18:25.507Z,49.59
2018-09-11T14:20:53.559Z,49.39
2018-09-11T14:23:21.580Z,48.88
2018-09-11T14:25:49.601Z,48.74
2018-09-11T14:28:17.844Z,49.01
2018-09-11T14:30:45.857Z,49.53
2018-09-11T14:33:14.125Z,50.02
2018-09-11T14:35:42.356Z,48.98
2018-09-11T14:38:10.425Z,48.66
2018-09-11T14:40:38.666Z,49.15
2018-09-11T14:43:07.025Z,49.84
2018-09-11T14:45:35.054Z,48.75
2018-09-11T14:48:03.078Z,48.65
2018-09-11T14:50:31.127Z,50.06
2018-09-11T14:52:59.169Z,49.01
2018-09-11T14:55:27.212Z,48.87
2018-09-11T14:57:55.260Z,49.48
2018-09-11T15:00:23.340Z,48.66
2018-09-11T15:02:51.324Z,49.54
2018-09-11T15:05:19.512Z,49.50
2018-09-11T15:07:47.989Z,49.11
2018-09-11T15:10:16.056Z,49.94
2018-09-11T15:12:44.084Z,50.07
2018-09-11T15:15:12.192Z,50.11
2018-09-11T15:17:40.303Z,49.17
2018-09-11T15:20:08.326Z,49.26
2018-09-11T15:22:36.379Z,48.68
2018-09-11T15:25:04.891Z,48.69
2018-09-11T15:27:33.067Z,49.38
2018-09-11T15:30:01.161Z,48.52
2018-09-11T15:32:29.088Z,49.31
2018-09-11T15:34:57.113Z,49.85
2018-09-11T15:37:25.140Z,49.22
2018-09-11T15:39:53.157Z,48.81
2018-09-11T15:42:21.219Z,48.55
2018-09-11T15:44:49.567Z,48.93
2018-09-11T15:47:17.601Z,49.62
2018-09-11T15:49:45.622Z,49.28
2018-09-11T15:52:13.777Z,49.93
2018-09-11T15:54:52.408Z,48.38
2018-09-11T15:57:20.451Z,49.48
2018-09-11T15:59:48.477Z,48.78
2018-09-11T16:05:09.472Z,49.33
2018-09-11T16:07:37.591Z,49.17
2018-09-11T16:10:06.664Z,49.17
2018-09-11T16:12:34.913Z,49.56
2018-09-11T16:15:02.978Z,49.73
2018-09-11T16:17:30.940Z,49.61
2018-09-11T16:19:58.971Z,50.20
2018-09-11T16:22:26.996Z,50.62
2018-09-11T16:24:55.012Z,49.46
2018-09-11T16:27:23.059Z,49.49
2018-09-11T16:29:51.462Z,50.27
2018-09-11T16:32:19.460Z,50.50
2018-09-11T16:34:47.640Z,49.72
2018-09-11T16:37:15.644Z,50.16
2018-09-11T16:39:43.669Z,50.25
2018-09-11T16:42:11.681Z,50.13
2018-09-11T16:44:39.696Z,50.71
2018-09-11T16:47:07.708Z,50.80
2018-09-11T16:49:36.909Z,51.13
2018-09-11T16:52:05.459Z,50.20
2018-09-11T16:54:35.367Z,50.64
2018-09-11T16:57:04.504Z,51.26
2018-09-11T16:59:32.545Z,50.37
2018-09-11T17:02:00.640Z,51.08
2018-09-11T17:04:28.688Z,51.27
2018-09-11T17:06:56.734Z,50.70
2018-09-11T17:09:24.836Z,51.59
2018-09-11T17:11:52.880Z,50.94
2018-09-11T17:14:21.144Z,51.70
2018-09-11T17:16:49.186Z,51.64
2018-09-11T17:19:17.200Z,50.76
2018-09-11T17:21:45.508Z,51.39
2018-09-11T17:24:13.592Z,51.15
2018-09-11T17:26:45.569Z,51.16
2018-09-11T17:29:13.604Z,52.15
2018-09-11T17:31:41.772Z,52.33
2018-09-11T17:34:10.167Z,51.56
2018-09-11T17:36:39.473Z,52.45
2018-09-11T17:39:08.760Z,51.80
2018-09-11T17:41:36.858Z,51.85
2018-09-11T17:44:05.504Z,52.18
2018-09-11T17:46:33.565Z,52.51
2018-09-11T17:49:01.735Z,52.36
2018-09-11T17:54:22.593Z,52.50
2018-09-11T17:56:50.625Z,52.40
2018-09-11T17:59:18.667Z,52.50
2018-09-11T18:01:46.692Z,53.50
2018-09-11T18:04:14.716Z,53.42
2018-09-11T18:06:42.733Z,53.72
2018-09-11T18:09:11.126Z,52.78
2018-09-11T18:11:39.162Z,52.82
2018-09-11T18:14:07.201Z,53.94
2018-09-11T18:16:35.359Z,53.91
2018-09-11T18:19:03.384Z,52.88
2018-09-11T18:21:42.750Z,53.13
2018-09-11T18:24:10.790Z,53.88
2018-09-11T18:26:38.821Z,53.63
2018-09-11T18:29:06.851Z,53.01
2018-09-11T18:31:34.872Z,53.27
2018-09-11T18:34:02.901Z,53.53
2018-09-11T18:36:31.290Z,53.75
2018-09-11T18:39:01.476Z,53.14
2018-09-11T18:41:29.497Z,54.04
2018-09-11T18:43:57.533Z,53.11
2018-09-11T18:46:25.553Z,54.06
2018-09-11T18:48:53.584Z,53.33
2018-09-11T18:51:21.623Z,53.20
2018-09-11T18:53:49.641Z,53.36
2018-09-11T18:56:17.678Z,53.75
2018-09-11T18:58:45.712Z,54.26
2018-09-11T19:01:14.240Z,53.58
2018-09-11T19:03:42.665Z,53.91
2018-09-11T19:06:10.681Z,54.30
2018-09-11T19:08:38.737Z,54.47
2018-09-11T19:11:07.022Z,54.75
2018-09-11T19:13:34.958Z,54.35
2018-09-11T19:16:02.980Z,54.47
2018-09-11T19:18:31.037Z,54.07
2018-09-11T19:20:59.063Z,55.21
2018-09-11T19:23:27.133Z,54.49
2018-09-11T19:25:55.244Z,54.80
2018-09-11T19:28:23.512Z,55.01
2018-09-11T19:30:51.565Z,54.98
2018-09-11T19:33:19.595Z,55.56
2018-09-11T19:35:55.499Z,56.08
2018-09-11T19:38:25.120Z,55.22
2018-09-11T19:40:53.155Z,55.11
2018-09-11T19:43:21.492Z,55.23
2018-09-11T19:45:49.690Z,55.82
2018-09-11T19:48:34.736Z,54.84
2018-09-11T19:51:02.789Z,55.73
2018-09-11T19:53:30.832Z,55.17
2018-09-11T19:55:58.869Z,55.56
2018-09-11T19:58:27.058Z,56.05
2018-09-11T20:00:55.250Z,56.40
2018-09-11T20:03:23.607Z,55.69
2018-09-11T20:05:51.652Z,56.68
2018-09-11T20:08:19.867Z,55.68
2018-09-11T20:10:48.046Z,56.65
2018-09-11T20:13:16.119Z,56.60
2018-09-11T20:15:44.140Z,56.78
2018-09-11T20:18:12.209Z,56.38
2018-09-11T20:20:40.257Z,56.95
2018-09-11T20:23:08.310Z,57.03
2018-09-11T20:25:36.361Z,56.46
2018-09-11T20:28:05.305Z,56.29
2018-09-11T20:30:33.338Z,56.67
2018-09-11T20:33:01.770Z,57.32
2018-09-11T20:35:29.810Z,57.58
2018-09-11T20:37:57.861Z,57.59
2018-09-11T20:40:25.918Z,58.32
2018-09-11T20:42:53.993Z,58.40
2018-09-11T20:45:22.169Z,58.23
2018-09-11T20:47:50.208Z,58.38
2018-09-11T20:50:18.240Z,57.51
2018-09-11T20:52:46.343Z,57.87
2018-09-11T20:55:14.414Z,58.17
2018-09-11T20:57:45.469Z,57.92
2018-09-11T21:00:13.519Z,58.76
2018-09-11T21:02:41.573Z,58.81
2018-09-11T21:05:09.607Z,58.88
2018-09-11T21:07:37.640Z,59.57
2018-09-11T21:10:05.666Z,59.19
2018-09-11T21:12:33.736Z,59.11
2018-09-11T21:15:01.752Z,59.11
2018-09-11T21:17:30.733Z,59.45
2018-09-11T21:19:58.764Z,60.02
2018-09-11T21:22:26.793Z,59.79
2018-09-11T21:24:54.857Z,60.06
2018-09-11T21:27:22.881Z,59.77
2018-09-11T21:29:50.915Z,60.35
2018-09-11T21:32:18.955Z,60.69
2018-09-11T21:34:47.008Z,60.28
2018-09-11T21:37:15.034Z,61.56
2018-09-11T21:39:43.092Z,61.19
2018-09-11T21:42:11.076Z,60.92
2018-09-11T21:44:39.119Z,60.88
2018-09-11T21:47:07.156Z,61.11
2018-09-11T21:49:35.204Z,61.52
2018-09-11T21:52:03.298Z,61.90
2018-09-11T21:54:31.268Z,62.33
2018-09-11T21:56:59.314Z,62.06
2018-09-11T21:59:27.345Z,62.41
2018-09-11T22:01:59.567Z,62.27
2018-09-11T22:04:27.609Z,61.92
2018-09-11T22:06:55.630Z,61.77
2018-09-11T22:09:23.660Z,62.78
2018-09-11T22:11:51.766Z,62.24
2018-09-11T22:14:19.747Z,62.60
2018-09-11T22:16:47.804Z,63.25
2018-09-11T22:19:15.932Z,63.31
2018-09-11T22:21:43.898Z,63.18
2018-09-11T22:24:11.946Z,63.76
2018-09-11T22:26:39.996Z,64.91
2018-09-11T22:29:08.045Z,64.55
2018-09-11T22:31:36.124Z,64.94
2018-09-11T22:34:04.760Z,65.00
2018-09-11T22:36:32.804Z,64.88
2018-09-11T22:39:00.877Z,65.50
2018-09-11T22:41:28.929Z,64.56
2018-09-11T22:43:56.973Z,64.79
2018-09-11T22:46:25.226Z,64.69
2018-09-11T22:48:53.281Z,65.76
2018-09-11T22:51:21.322Z,65.45
2018-09-11T22:53:49.361Z,65.75
2018-09-11T22:56:17.388Z,65.33
2018-09-11T22:58:45.424Z,65.76
2018-09-11T23:01:13.485Z,65.95
2018-09-11T23:03:41.520Z,66.40
2018-09-11T23:06:09.566Z,65.95
2018-09-11T23:08:37.637Z,66.69
2018-09-11T23:11:05.804Z,66.64
2018-09-11T23:13:33.837Z,66.02
2018-09-11T23:16:01.878Z,66.39
2018-09-11T23:18:29.964Z,67.40
2018-09-11T23:20:58.000Z,67.32
2018-09-11T23:23:26.020Z,67.47
2018-09-11T23:25:54.052Z,67.78
2018-09-11T23:28:22.089Z,68.11
2018-09-11T23:30:50.136Z,68.03
2018-09-11T23:33:18.176Z,68.03
2018-09-11T23:35:46.216Z,68.84
2018-09-11T23:38:14.255Z,68.94
2018-09-11T23:40:42.273Z,69.33
2018-09-11T23:43:10.310Z,68.52
2018-09-11T23:45:38.349Z,69.14
2018-09-11T23:48:06.387Z,69.47
2018-09-11T23:50:34.530Z,68.61
2018-09-11T23:53:02.552Z,69.03
2018-09-11T23:55:30.580Z,69.58
2018-09-11T23:57:58.604Z,69.00
